Arrington, Virginia
Current Conditions -  °F | °C
As of 7:15 PM on Saturday 25 Oct 2014 (Local Time) from KW13 Reporting Station
Clear Clear  
Wind Chill: 60°   Ceiling: Unl
Heat Index: 60°   Visibility: 10mi
Dew Point: 42°   Wind: 0mph
Humidity: 52%   Direction: NA
Pressure: 29.82"   Gusts: NA
Location:  37.68°N, 78.9°W
Report Text: KW13 252315Z AUTO 00000KT 10SM CLR 15/06 A2982 RMK AO1 T01530055
Loading
Personal Weather Stations






























Interactive Weather Map
Tropical Storm Tracking
New forecast layout! Learn more

10-Day Weather Forecast

Advertisements
Track Severe Weather on mobile